Time;durP1;ratioP1;P1;durP2;ratioP2;P2;SDS_P1;SDS_P2;PMS_P1;PMS_P2;Temp;Humidity;BMP_temperature;BMP_pressure;BME280_temperature;BME280_humidity;BME280_pressure;Samples;Min_cycle;Max_cycle;Signal;HPM_P1;HPM_P2
2023/02/24 00:00:51;;;;;;;34.25;20.38;;;;;;;5.08;100.00;100623.41;684011;28;878;-79
2023/02/24 00:01:17;;;;;;;35.25;21.27;;;;;;;5.09;100.00;100625.13;685142;28;1047;-79
2023/02/24 00:01:50;;;;;;;37.20;21.85;;;;;;;5.04;100.00;100621.59;684263;28;4317;-79
2023/02/24 00:02:13;;;;;;;37.92;22.15;;;;;;;5.11;100.00;100623.44;682010;28;929;-79
2023/02/24 00:02:34;;;;;;;37.60;22.70;;;;;;;5.11;100.00;100631.22;682392;28;1212;-78
2023/02/24 00:02:54;;;;;;;40.03;23.67;;;;;;;5.08;100.00;100633.78;680316;29;1247;-79
2023/02/24 00:03:14;;;;;;;38.75;22.35;;;;;;;5.08;100.00;100628.59;682626;28;1906;-78
2023/02/24 00:03:43;;;;;;;40.27;22.53;;;;;;;5.10;100.00;100632.06;682865;29;874;-79
2023/02/24 00:04:07;;;;;;;37.92;22.23;;;;;;;5.11;100.00;100630.38;682507;28;1443;-78
2023/02/24 00:04:32;;;;;;;38.05;22.70;;;;;;;5.10;100.00;100624.28;683357;28;4380;-79
2023/02/24 00:04:53;;;;;;;39.42;23.52;;;;;;;5.07;100.00;100623.38;683566;28;1686;-79
2023/02/24 00:05:13;;;;;;;41.63;23.23;;;;;;;5.00;100.00;100617.22;679729;28;1252;-78
2023/02/24 00:05:36;;;;;;;40.75;23.63;;;;;;;4.97;100.00;100621.47;678113;29;1977;-77
2023/02/24 00:05:57;;;;;;;39.55;22.20;;;;;;;4.99;100.00;100620.66;681279;29;2196;-78
2023/02/24 00:06:20;;;;;;;38.90;23.05;;;;;;;5.04;100.00;100631.97;683047;28;1288;-78
2023/02/24 00:06:42;;;;;;;41.40;23.65;;;;;;;5.04;100.00;100621.59;682333;28;1241;-79
2023/02/24 00:07:03;;;;;;;41.35;24.23;;;;;;;5.02;100.00;100625.88;682234;28;1429;-78
2023/02/24 00:07:23;;;;;;;41.65;24.15;;;;;;;4.98;100.00;100624.06;685775;28;1043;-79
2023/02/24 00:07:44;;;;;;;40.35;23.48;;;;;;;5.07;100.00;100637.19;684120;28;4305;-79
2023/02/24 00:08:05;;;;;;;40.90;24.13;;;;;;;5.07;100.00;100624.25;681533;28;1319;-79
2023/02/24 00:08:25;;;;;;;40.90;23.80;;;;;;;5.00;100.00;100632.75;682927;28;1405;-79
2023/02/24 00:08:46;;;;;;;41.90;23.65;;;;;;;4.98;100.00;100623.22;682993;29;775;-79
2023/02/24 00:09:08;;;;;;;39.23;23.43;;;;;;;4.94;100.00;100617.09;682274;29;1353;-78
2023/02/24 00:09:30;;;;;;;38.35;22.77;;;;;;;4.88;100.00;100653.25;682986;29;1024;-78
2023/02/24 00:09:50;;;;;;;41.35;24.05;;;;;;;4.95;100.00;100621.44;682505;28;1298;-78
2023/02/24 00:10:18;;;;;;;39.90;23.07;;;;;;;4.95;100.00;100640.44;686646;28;1218;-78
2023/02/24 00:10:38;;;;;;;38.75;23.05;;;;;;;4.94;100.00;100628.34;690554;28;4352;-78
2023/02/24 00:10:59;;;;;;;39.63;23.10;;;;;;;4.94;100.00;100648.19;686632;28;1257;-77
2023/02/24 00:11:20;;;;;;;37.70;22.25;;;;;;;4.92;100.00;100642.13;689795;28;971;-79
2023/02/24 00:11:44;;;;;;;38.67;21.67;;;;;;;4.82;100.00;100616.88;690552;28;1188;-78
2023/02/24 00:12:07;;;;;;;39.67;22.65;;;;;;;4.78;100.00;100642.72;687665;28;5022;-78
2023/02/24 00:12:28;;;;;;;41.08;23.17;;;;;;;4.82;100.00;100642.78;691164;28;1304;-78
2023/02/24 00:12:48;;;;;;;41.83;23.37;;;;;;;4.88;100.00;100643.75;691973;28;1110;-78
2023/02/24 00:13:10;;;;;;;41.97;23.27;;;;;;;4.89;100.00;100613.56;689873;28;1078;-78
2023/02/24 00:13:33;;;;;;;40.38;23.35;;;;;;;4.94;100.00;100614.50;681841;28;4319;-79
2023/02/24 00:13:56;;;;;;;38.83;22.80;;;;;;;4.99;100.00;100615.47;685661;28;1019;-78
2023/02/24 00:14:17;;;;;;;39.13;22.27;;;;;;;4.97;100.00;100647.38;684421;28;1221;-78
2023/02/24 00:14:44;;;;;;;41.25;23.85;;;;;;;5.04;100.00;100613.84;686292;28;1071;-78
2023/02/24 00:15:05;;;;;;;37.70;22.83;;;;;;;4.97;100.00;100648.25;687111;28;1415;-78
2023/02/24 00:15:26;;;;;;;37.45;22.23;;;;;;;4.99;100.00;100659.50;689349;28;790;-77
2023/02/24 00:15:58;;;;;;;38.92;21.52;;;;;;;4.94;100.00;100620.56;688063;28;928;-78
2023/02/24 00:16:19;;;;;;;37.25;21.23;;;;;;;4.94;100.00;100627.44;687118;28;1257;-78
2023/02/24 00:16:40;;;;;;;37.85;20.92;;;;;;;5.07;100.00;100621.66;687511;28;4297;-78
2023/02/24 00:17:01;;;;;;;38.00;20.80;;;;;;;5.08;100.00;100615.63;685427;28;1276;-78
2023/02/24 00:17:26;;;;;;;36.83;20.45;;;;;;;5.10;100.00;100639.84;686773;28;1143;-78
2023/02/24 00:17:50;;;;;;;38.28;20.33;;;;;;;5.15;100.00;100616.59;682574;29;971;-78
2023/02/24 00:18:14;;;;;;;33.13;19.40;;;;;;;5.08;100.00;100638.94;682389;28;1463;-78
2023/02/24 00:18:34;;;;;;;36.47;20.67;;;;;;;5.10;100.00;100639.84;681480;28;983;-78
2023/02/24 00:18:59;;;;;;;37.58;20.70;;;;;;;4.98;100.00;100637.03;686768;28;830;-78
2023/02/24 00:19:28;;;;;;;35.25;20.30;;;;;;;5.00;100.00;100617.22;684743;28;1246;-78
2023/02/24 00:19:48;;;;;;;38.50;19.33;;;;;;;4.95;100.00;100611.06;684540;28;5822;-78
2023/02/24 00:20:13;;;;;;;36.85;20.08;;;;;;;5.00;100.00;100622.41;684655;28;1083;-78
2023/02/24 00:20:33;;;;;;;34.90;20.60;;;;;;;5.01;100.00;100608.59;685338;28;948;-78
2023/02/24 00:20:57;;;;;;;34.27;20.20;;;;;;;4.93;100.00;100623.16;682790;28;1223;-78
2023/02/24 00:21:18;;;;;;;32.92;19.00;;;;;;;4.99;100.00;100612.00;684954;28;1142;-78
2023/02/24 00:21:39;;;;;;;38.20;19.95;;;;;;;4.99;100.00;100632.75;684295;28;1182;-78
2023/02/24 00:22:06;;;;;;;36.83;20.50;;;;;;;5.06;100.00;100614.72;685298;28;1314;-78
2023/02/24 00:22:27;;;;;;;33.55;18.73;;;;;;;4.99;100.00;100633.59;685514;28;4378;-77
2023/02/24 00:22:48;;;;;;;34.22;19.30;;;;;;;4.97;100.00;100624.06;684941;28;1405;-78
2023/02/24 00:23:09;;;;;;;34.47;18.70;;;;;;;4.90;100.00;100599.75;684750;28;1938;-78
2023/02/24 00:23:30;;;;;;;34.80;18.97;;;;;;;4.96;100.00;100607.66;684935;28;3609;-78
2023/02/24 00:23:52;;;;;;;36.05;19.45;;;;;;;4.96;100.00;100602.47;683736;28;1313;-78
2023/02/24 00:24:13;;;;;;;36.85;19.73;;;;;;;4.97;100.00;100614.56;686214;28;1036;-78
2023/02/24 00:24:34;;;;;;;34.92;18.60;;;;;;;4.95;100.00;100617.13;687670;28;1210;-78
2023/02/24 00:24:54;;;;;;;37.05;18.95;;;;;;;4.99;100.00;100620.66;687517;28;1346;-78
2023/02/24 00:25:18;;;;;;;36.23;19.23;;;;;;;5.03;100.00;100609.50;687961;28;987;-78
2023/02/24 00:25:38;;;;;;;36.17;18.75;;;;;;;4.98;100.00;100605.06;684783;28;4295;-78
2023/02/24 00:26:06;;;;;;;36.55;19.00;;;;;;;4.92;100.00;100614.47;682077;29;1233;-78
2023/02/24 00:26:28;;;;;;;36.13;19.30;;;;;;;4.92;100.00;100614.47;684148;28;1266;-78
2023/02/24 00:26:58;;;;;;;33.42;18.17;;;;;;;4.86;100.00;100598.84;684924;28;1138;-78
2023/02/24 00:27:18;;;;;;;33.28;18.25;;;;;;;4.88;100.00;100604.91;688028;28;1429;-78
2023/02/24 00:27:39;;;;;;;34.83;18.90;;;;;;;4.87;100.00;100608.34;685436;28;1122;-78
2023/02/24 00:28:00;;;;;;;34.55;19.40;;;;;;;4.94;100.00;100607.63;682162;28;1379;-78
2023/02/24 00:28:21;;;;;;;36.22;18.63;;;;;;;4.94;100.00;100615.41;683327;28;1162;-78
2023/02/24 00:28:41;;;;;;;36.77;18.67;;;;;;;4.98;100.00;100613.72;684929;28;4330;-78
2023/02/24 00:29:07;;;;;;;32.05;18.10;;;;;;;5.02;100.00;100597.38;688580;28;1184;-78
2023/02/24 00:29:31;;;;;;;30.80;17.13;;;;;;;5.02;100.00;100593.91;690719;28;1450;-78
2023/02/24 00:29:53;;;;;;;31.73;17.17;;;;;;;4.99;100.00;100602.50;688122;28;1278;-79
2023/02/24 00:30:15;;;;;;;30.40;16.83;;;;;;;4.89;100.00;100603.22;685075;28;969;-78
2023/02/24 00:30:35;;;;;;;29.42;16.40;;;;;;;4.92;100.00;100598.06;683099;28;1145;-78
2023/02/24 00:31:00;;;;;;;31.40;17.17;;;;;;;4.88;100.00;100599.72;684920;28;1560;-76
2023/02/24 00:31:22;;;;;;;35.63;17.42;;;;;;;4.84;100.00;100597.06;685016;28;1435;-78
2023/02/24 00:31:43;;;;;;;32.63;17.38;;;;;;;4.79;100.00;100597.00;687446;28;4335;-78
2023/02/24 00:32:05;;;;;;;32.20;17.42;;;;;;;4.83;100.00;100591.03;682187;28;1220;-78
2023/02/24 00:32:35;;;;;;;30.58;16.88;;;;;;;4.82;100.00;100586.69;682487;28;1263;-78
2023/02/24 00:32:59;;;;;;;31.58;17.10;;;;;;;4.77;100.00;100599.53;684796;28;1035;-78
2023/02/24 00:33:22;;;;;;;30.70;17.50;;;;;;;4.79;100.00;100597.00;687693;28;1244;-78
2023/02/24 00:33:47;;;;;;;33.22;18.08;;;;;;;4.79;100.00;100586.63;684575;28;1272;-78
2023/02/24 00:34:11;;;;;;;33.05;17.45;;;;;;;4.84;100.00;100584.13;682887;28;1320;-79
2023/02/24 00:34:34;;;;;;;33.35;16.75;;;;;;;4.79;100.00;100586.63;684532;28;4341;-78
2023/02/24 00:34:54;;;;;;;31.40;16.90;;;;;;;4.79;100.00;100597.00;684246;28;1318;-78
2023/02/24 00:35:18;;;;;;;31.00;16.83;;;;;;;4.78;100.00;100585.75;684092;28;1458;-78
2023/02/24 00:35:38;;;;;;;31.83;16.37;;;;;;;4.79;100.00;100597.00;687964;28;1220;-78
2023/02/24 00:36:11;;;;;;;29.73;16.17;;;;;;;4.69;100.00;100595.94;690830;28;1226;-78
2023/02/24 00:36:32;;;;;;;27.60;15.77;;;;;;;4.66;100.00;100585.53;686778;28;1267;-78
2023/02/24 00:36:53;;;;;;;27.92;15.57;;;;;;;4.64;100.00;100587.22;687002;28;1160;-79
2023/02/24 00:37:22;;;;;;;27.45;15.98;;;;;;;4.65;100.00;100588.94;688925;28;1336;-78
2023/02/24 00:37:50;;;;;;;31.90;16.83;;;;;;;4.63;100.00;100582.88;684671;28;4337;-78
2023/02/24 00:38:12;;;;;;;31.73;16.60;;;;;;;4.60;100.00;100608.72;687148;28;1106;-78
2023/02/24 00:38:34;;;;;;;30.40;15.95;;;;;;;4.63;100.00;100606.19;685077;28;1454;-79
2023/02/24 00:38:58;;;;;;;29.80;16.30;;;;;;;4.60;100.00;100582.84;682546;28;1336;-78
2023/02/24 00:39:27;;;;;;;31.23;16.33;;;;;;;4.58;100.00;100603.53;687598;28;1248;-79
2023/02/24 00:39:49;;;;;;;30.70;15.90;;;;;;;4.55;100.00;100603.44;688050;28;801;-78
2023/02/24 00:40:10;;;;;;;30.30;15.95;;;;;;;4.61;100.00;100582.00;690140;28;1263;-78
2023/02/24 00:40:36;;;;;;;34.45;16.65;;;;;;;4.70;100.00;100584.72;687392;28;4352;-79
2023/02/24 00:40:57;;;;;;;32.55;16.30;;;;;;;4.73;100.00;100592.56;689956;28;793;-78
2023/02/24 00:41:21;;;;;;;31.05;16.02;;;;;;;4.71;100.00;100589.06;683577;28;980;-78
2023/02/24 00:41:43;;;;;;;30.08;15.48;;;;;;;4.74;100.00;100583.94;684333;28;821;-78
2023/02/24 00:42:05;;;;;;;33.45;16.42;;;;;;;4.74;100.00;100594.31;686316;28;1199;-78
2023/02/24 00:42:26;;;;;;;30.70;16.27;;;;;;;4.81;100.00;100592.69;684575;28;1357;-78
2023/02/24 00:42:47;;;;;;;29.30;15.57;;;;;;;4.75;100.00;100590.88;685044;28;1304;-78
2023/02/24 00:43:14;;;;;;;29.55;15.50;;;;;;;4.80;100.00;100587.50;685120;28;2122;-78
2023/02/24 00:43:36;;;;;;;30.02;15.00;;;;;;;4.82;100.00;100586.69;682727;28;4411;-78
2023/02/24 00:44:05;;;;;;;28.30;14.90;;;;;;;4.82;100.00;100609.09;677839;29;1544;-78
2023/02/24 00:44:28;;;;;;;28.10;14.88;;;;;;;4.78;100.00;100615.97;685334;28;1437;-78
2023/02/24 00:44:49;;;;;;;29.25;14.95;;;;;;;4.82;100.00;100614.28;682975;28;1463;-78
2023/02/24 00:45:09;;;;;;;31.50;15.50;;;;;;;4.77;100.00;100614.22;682051;29;1360;-78
2023/02/24 00:45:35;;;;;;;32.67;15.55;;;;;;;4.75;100.00;100609.00;686888;28;1267;-78
2023/02/24 00:45:55;;;;;;;27.65;15.48;;;;;;;4.71;100.00;100586.50;684660;28;1271;-78
2023/02/24 00:46:19;;;;;;;30.58;15.77;;;;;;;4.70;100.00;100586.47;685063;28;1235;-78
2023/02/24 00:46:45;;;;;;;33.28;16.00;;;;;;;4.64;100.00;100583.75;682098;28;4388;-78
2023/02/24 00:47:15;;;;;;;34.17;16.30;;;;;;;4.60;100.00;100594.06;687046;28;1465;-78
2023/02/24 00:47:40;;;;;;;28.77;15.68;;;;;;;4.54;100.00;100585.28;684676;28;1284;-78
2023/02/24 00:48:09;;;;;;;29.52;15.43;;;;;;;4.55;100.00;100584.47;681585;28;1162;-78
2023/02/24 00:48:30;;;;;;;29.60;15.68;;;;;;;4.57;100.00;100590.56;682338;29;1499;-78
2023/02/24 00:48:55;;;;;;;30.30;15.63;;;;;;;4.57;100.00;100600.91;684869;28;1492;-78
2023/02/24 00:49:17;;;;;;;32.20;15.60;;;;;;;4.63;100.00;100589.78;686173;28;1378;-78
2023/02/24 00:49:42;;;;;;;34.85;16.08;;;;;;;4.63;100.00;100575.13;688024;28;4313;-78
2023/02/24 00:50:07;;;;;;;31.20;16.23;;;;;;;4.61;100.00;100571.66;684467;28;1284;-78
2023/02/24 00:50:31;;;;;;;34.63;17.00;;;;;;;4.65;100.00;100601.91;682826;29;1268;-78
2023/02/24 00:50:56;;;;;;;34.13;15.55;;;;;;;4.60;100.00;100577.66;682034;29;1423;-78
2023/02/24 00:51:24;;;;;;;32.80;16.13;;;;;;;4.59;100.00;100571.59;684597;28;1362;-79
2023/02/24 00:51:47;;;;;;;32.10;15.93;;;;;;;4.57;100.00;100595.72;686263;28;1241;-78
2023/02/24 00:52:16;;;;;;;34.90;16.63;;;;;;;4.56;100.00;100566.34;684943;28;1148;-79
2023/02/24 00:52:37;;;;;;;33.92;16.38;;;;;;;4.61;100.00;100571.66;687143;28;4382;-78
2023/02/24 00:52:59;;;;;;;30.65;16.00;;;;;;;4.62;100.00;100560.41;688051;28;1473;-78
2023/02/24 00:53:22;;;;;;;30.38;16.23;;;;;;;4.57;100.00;100606.09;682652;28;922;-78
2023/02/24 00:53:43;;;;;;;32.03;16.27;;;;;;;4.55;100.00;100600.00;682851;29;1063;-79
2023/02/24 00:54:13;;;;;;;31.77;16.30;;;;;;;4.52;100.00;100568.88;681964;28;1272;-78
2023/02/24 00:54:38;;;;;;;32.58;16.63;;;;;;;4.52;100.00;100574.06;682144;28;1428;-78
2023/02/24 00:54:58;;;;;;;35.67;16.83;;;;;;;4.55;100.00;100585.31;685013;28;1088;-78
2023/02/24 00:55:23;;;;;;;33.05;16.35;;;;;;;4.57;100.00;100586.25;690257;28;1358;-78
2023/02/24 00:55:44;;;;;;;29.10;16.40;;;;;;;4.55;100.00;100562.00;687629;28;4327;-78
2023/02/24 00:56:06;;;;;;;29.30;16.47;;;;;;;4.57;100.00;100562.06;689287;28;1134;-78
2023/02/24 00:56:30;;;;;;;32.03;17.17;;;;;;;4.54;100.00;100580.13;687410;28;1284;-78
2023/02/24 00:56:55;;;;;;;32.40;16.70;;;;;;;4.56;100.00;100561.19;687228;28;844;-79
2023/02/24 00:57:19;;;;;;;34.85;17.55;;;;;;;4.55;100.00;100572.38;689426;28;1143;-78
2023/02/24 00:57:43;;;;;;;34.88;17.60;;;;;;;4.52;100.00;100561.09;690019;28;1050;-78
2023/02/24 00:58:06;;;;;;;34.83;17.50;;;;;;;4.49;100.00;100580.03;686717;28;1272;-78
2023/02/24 00:58:28;;;;;;;39.35;18.02;;;;;;;4.47;100.00;100557.56;684148;28;4327;-78
2023/02/24 00:58:49;;;;;;;35.05;17.00;;;;;;;4.50;100.00;100552.44;687911;28;1244;-79
2023/02/24 00:59:12;;;;;;;36.88;17.05;;;;;;;4.48;100.00;100546.38;681866;29;1207;-78
2023/02/24 00:59:34;;;;;;;32.95;17.00;;;;;;;4.54;100.00;100551.63;684604;28;1390;-78
2023/02/24 00:59:57;;;;;;;32.05;17.23;;;;;;;4.55;100.00;100579.28;686973;28;1379;-78
2023/02/24 01:00:18;;;;;;;32.95;17.25;;;;;;;4.62;100.00;100546.63;686292;28;1287;-78
2023/02/24 01:00:42;;;;;;;31.80;17.08;;;;;;;4.64;100.00;100561.34;681934;28;1389;-77
2023/02/24 01:01:12;;;;;;;33.67;17.52;;;;;;;4.58;100.00;100543.97;681161;28;1258;-78
2023/02/24 01:01:33;;;;;;;33.92;17.90;;;;;;;4.57;100.00;100554.31;682327;28;4316;-78
2023/02/24 01:01:57;;;;;;;34.08;17.38;;;;;;;4.53;100.00;100547.31;681271;28;1196;-78
2023/02/24 01:02:20;;;;;;;35.87;17.77;;;;;;;4.49;100.00;100571.41;685080;28;922;-78
2023/02/24 01:02:40;;;;;;;38.50;18.77;;;;;;;4.48;100.00;100547.22;686267;28;1239;-77
2023/02/24 01:03:02;;;;;;;36.33;18.00;;;;;;;4.45;100.00;100549.75;688103;28;1976;-78
2023/02/24 01:03:24;;;;;;;36.58;18.60;;;;;;;4.48;100.00;100548.94;685390;28;1245;-78
2023/02/24 01:03:50;;;;;;;36.92;18.20;;;;;;;4.51;100.00;100549.88;685198;28;1295;-78
2023/02/24 01:04:11;;;;;;;37.45;18.70;;;;;;;4.50;100.00;100552.44;684760;28;1347;-78
2023/02/24 01:04:32;;;;;;;36.20;18.02;;;;;;;4.47;100.00;100562.72;684593;28;4437;-76
2023/02/24 01:04:53;;;;;;;34.15;18.05;;;;;;;4.50;100.00;100550.72;690058;28;1323;-78
2023/02/24 01:05:13;;;;;;;33.97;18.07;;;;;;;4.51;100.00;100556.78;688038;28;1326;-78
2023/02/24 01:05:35;;;;;;;36.97;18.40;;;;;;;4.47;100.00;100552.38;690041;28;1418;-78
2023/02/24 01:05:55;;;;;;;39.15;19.15;;;;;;;4.46;100.00;100551.53;690446;28;1225;-78
2023/02/24 01:06:22;;;;;;;37.35;19.05;;;;;;;4.45;100.00;100548.91;689191;28;1223;-78
2023/02/24 01:06:58;;;;;;;39.03;19.15;;;;;;;4.41;100.00;100569.53;690420;28;1328;-78
2023/02/24 01:07:21;;;;;;;36.28;18.60;;;;;;;4.45;100.00;100557.53;687318;28;1115;-78
2023/02/24 01:07:42;;;;;;;35.25;18.52;;;;;;;4.50;100.00;100557.59;680662;28;4302;-78
2023/02/24 01:08:03;;;;;;;40.42;18.95;;;;;;;4.50;100.00;100550.72;682120;28;941;-78
2023/02/24 01:08:23;;;;;;;42.10;19.08;;;;;;;4.47;100.00;100593.78;685288;28;1288;-78
2023/02/24 01:08:52;;;;;;;39.80;19.00;;;;;;;4.64;100.00;100548.38;679938;29;1348;-77
2023/02/24 01:09:16;;;;;;;39.30;19.05;;;;;;;4.71;100.00;100576.13;679933;29;1464;-78
2023/02/24 01:09:40;;;;;;;37.63;18.88;;;;;;;4.77;100.00;100565.00;679303;29;1029;-78
2023/02/24 01:10:01;;;;;;;38.42;19.00;;;;;;;4.81;100.00;100553.84;682056;29;1477;-78
2023/02/24 01:10:25;;;;;;;38.15;19.10;;;;;;;4.75;100.00;100577.06;687409;28;1073;-77
2023/02/24 01:12:00;;;;;;;33.88;18.33;;;;;;;4.68;100.00;100544.13;683483;28;4693;-78
2023/02/24 01:12:37;;;;;;;40.67;19.70;;;;;;;4.64;100.00;100566.50;686270;28;1339;-78
2023/02/24 01:13:00;;;;;;;39.30;19.05;;;;;;;4.53;100.00;100545.59;687494;28;1291;-78
2023/02/24 01:13:23;;;;;;;38.35;19.42;;;;;;;4.49;100.00;100540.34;686024;28;962;-78
2023/02/24 01:13:44;;;;;;;39.65;21.05;;;;;;;4.46;100.00;100567.03;687030;28;4423;-78
2023/02/24 01:14:17;;;;;;;40.55;20.40;;;;;;;4.45;100.00;100535.97;684616;28;1209;-78
2023/02/24 01:14:38;;;;;;;40.53;20.45;;;;;;;4.42;100.00;100550.56;684476;28;1259;-78
2023/02/24 01:15:03;;;;;;;41.70;21.08;;;;;;;4.46;100.00;100535.09;685380;28;809;-78
2023/02/24 01:15:27;;;;;;;42.58;20.88;;;;;;;4.43;100.00;100560.09;678509;29;1368;-78
2023/02/24 01:15:50;;;;;;;43.22;21.08;;;;;;;4.42;100.00;100563.53;679735;29;1283;-78
2023/02/24 01:16:17;;;;;;;43.50;21.08;;;;;;;4.48;100.00;100533.41;677563;29;919;-78
2023/02/24 01:16:40;;;;;;;37.58;20.48;;;;;;;4.44;100.00;100542.84;676176;29;4437;-78
2023/02/24 01:17:02;;;;;;;37.03;20.85;;;;;;;4.45;100.00;100546.31;684818;28;1549;-78
2023/02/24 01:17:24;;;;;;;41.75;21.30;;;;;;;4.48;100.00;100554.13;682349;28;1303;-78
2023/02/24 01:17:45;;;;;;;40.83;21.38;;;;;;;4.48;100.00;100546.38;682731;28;1327;-78
2023/02/24 01:18:09;;;;;;;44.30;21.40;;;;;;;4.50;100.00;100529.13;679962;28;1338;-78
2023/02/24 01:18:30;;;;;;;44.03;21.27;;;;;;;4.47;100.00;100532.53;682623;29;1351;-77
2023/02/24 01:18:51;;;;;;;44.23;21.10;;;;;;;4.45;100.00;100535.97;682695;28;1473;-78
2023/02/24 01:19:30;;;;;;;44.13;21.75;;;;;;;4.43;100.00;100536.81;681427;29;1226;-78
2023/02/24 01:19:53;;;;;;;43.30;22.38;;;;;;;4.40;100.00;100539.34;683582;28;4882;-78
2023/02/24 01:20:19;;;;;;;40.22;20.77;;;;;;;4.49;100.00;100530.84;686025;28;1307;-79
2023/02/24 01:20:40;;;;;;;43.83;21.63;;;;;;;4.51;100.00;100533.47;679550;29;1364;-78
2023/02/24 01:21:01;;;;;;;41.77;21.50;;;;;;;4.48;100.00;100539.47;679927;29;1330;-78
2023/02/24 01:21:24;;;;;;;43.03;21.83;;;;;;;4.49;100.00;100542.94;676762;29;1317;-78
2023/02/24 01:21:53;;;;;;;41.90;22.23;;;;;;;4.44;100.00;100555.78;678086;29;1555;-78
2023/02/24 01:22:16;;;;;;;49.92;23.25;;;;;;;4.54;100.00;100530.94;679188;29;1131;-78
2023/02/24 01:22:38;;;;;;;44.92;22.55;;;;;;;4.59;100.00;100531.88;680999;28;4311;-78
2023/02/24 01:23:02;;;;;;;44.63;22.27;;;;;;;4.53;100.00;100561.13;683546;28;1914;-77
2023/02/24 01:23:25;;;;;;;43.58;22.27;;;;;;;4.47;100.00;100529.94;682322;28;1430;-78
2023/02/24 01:23:48;;;;;;;43.28;23.10;;;;;;;4.54;100.00;100533.50;681597;29;825;-78
2023/02/24 01:24:11;;;;;;;45.13;22.33;;;;;;;4.63;100.00;100535.41;682982;28;1209;-78
2023/02/24 01:24:38;;;;;;;43.65;22.73;;;;;;;4.62;100.00;100537.13;687523;28;968;-77
2023/02/24 01:25:03;;;;;;;41.47;21.73;;;;;;;4.59;100.00;100552.59;685753;28;1431;-78
2023/02/24 01:25:23;;;;;;;42.28;22.05;;;;;;;4.57;100.00;100537.03;685046;28;1476;-78
2023/02/24 01:25:47;;;;;;;42.33;21.70;;;;;;;4.61;100.00;100530.22;680534;28;4336;-78
2023/02/24 01:26:10;;;;;;;41.13;22.25;;;;;;;4.55;100.00;100525.78;679202;28;1209;-78
2023/02/24 01:26:31;;;;;;;40.05;21.42;;;;;;;4.50;100.00;100531.72;679047;29;1302;-78
2023/02/24 01:26:52;;;;;;;44.67;22.10;;;;;;;4.46;100.00;100525.63;681879;29;975;-78
2023/02/24 01:27:17;;;;;;;43.58;22.27;;;;;;;4.46;100.00;100523.03;684383;28;1456;-78
2023/02/24 01:27:41;;;;;;;43.80;23.00;;;;;;;4.47;100.00;100536.84;687870;28;822;-78
2023/02/24 01:28:04;;;;;;;48.20;23.08;;;;;;;4.42;100.00;100542.81;687581;28;1302;-78
2023/02/24 01:28:25;;;;;;;45.00;22.65;;;;;;;4.42;100.00;100529.00;686171;28;1240;-78
2023/02/24 01:28:48;;;;;;;44.40;22.60;;;;;;;4.40;100.00;100541.03;676392;28;4553;-78
2023/02/24 01:29:11;;;;;;;46.03;22.80;;;;;;;4.31;100.00;100554.69;687267;28;1412;-78
2023/02/24 01:29:31;;;;;;;42.90;22.63;;;;;;;4.35;100.00;100529.75;685481;28;872;-77
2023/02/24 01:29:55;;;;;;;42.13;22.07;;;;;;;4.36;100.00;100523.69;682178;28;1337;-78
2023/02/24 01:30:17;;;;;;;46.28;22.20;;;;;;;4.33;100.00;100531.41;676740;28;1448;-78
2023/02/24 01:30:37;;;;;;;45.05;22.65;;;;;;;4.30;100.00;100529.63;678713;29;1366;-78
2023/02/24 01:31:06;;;;;;;47.03;22.37;;;;;;;4.30;100.00;100534.81;678332;29;1227;-78
2023/02/24 01:31:27;;;;;;;44.03;22.42;;;;;;;4.28;100.00;100545.97;679724;29;4329;-78
2023/02/24 01:31:50;;;;;;;48.47;23.08;;;;;;;4.25;100.00;100528.66;681535;28;1448;-78
2023/02/24 01:32:20;;;;;;;51.33;24.15;;;;;;;4.23;100.00;100549.34;679844;29;1199;-78
2023/02/24 01:32:42;;;;;;;44.00;22.92;;;;;;;4.22;100.00;100541.56;680798;29;1279;-78
2023/02/24 01:33:03;;;;;;;42.00;23.02;;;;;;;4.30;100.00;100528.78;682239;28;1269;-78
2023/02/24 01:33:23;;;;;;;46.83;23.10;;;;;;;4.31;100.00;100553.81;688075;28;1198;-78
2023/02/24 01:33:44;;;;;;;48.08;23.80;;;;;;;4.29;100.00;100552.91;684948;28;872;-78
2023/02/24 01:34:05;;;;;;;46.38;23.15;;;;;;;4.30;100.00;100565.00;687248;28;1016;-78
2023/02/24 01:34:26;;;;;;;46.00;22.27;;;;;;;4.26;100.00;100554.59;684713;28;4385;-78
2023/02/24 01:34:50;;;;;;;40.72;22.50;;;;;;;4.29;100.00;100537.38;688430;28;1200;-78
2023/02/24 01:35:11;;;;;;;45.17;22.55;;;;;;;4.28;100.00;100527.88;685184;28;1361;-79
2023/02/24 01:35:33;;;;;;;45.50;22.45;;;;;;;4.28;100.00;100544.28;682839;28;1386;-78
2023/02/24 01:36:09;;;;;;;44.97;22.38;;;;;;;4.33;100.00;100537.44;682173;29;1219;-78
2023/02/24 01:36:33;;;;;;;44.65;22.88;;;;;;;4.32;100.00;100565.91;682428;29;1329;-78
2023/02/24 01:36:54;;;;;;;46.55;22.25;;;;;;;4.30;100.00;100550.34;684142;28;1190;-78
2023/02/24 01:37:18;;;;;;;45.13;23.15;;;;;;;4.31;100.00;100531.41;684947;28;1244;-78
2023/02/24 01:37:38;;;;;;;44.45;23.00;;;;;;;4.28;100.00;100523.59;684461;28;4296;-78
2023/02/24 01:38:00;;;;;;;45.05;22.50;;;;;;;4.24;100.00;100534.72;683439;28;1441;-78
2023/02/24 01:38:24;;;;;;;44.60;21.92;;;;;;;4.26;100.00;100551.13;687606;28;1118;-78
2023/02/24 01:38:48;;;;;;;45.22;22.10;;;;;;;4.36;100.00;100552.16;682791;28;1441;-78
2023/02/24 01:39:10;;;;;;;45.00;21.80;;;;;;;4.40;100.00;100546.22;684176;28;1274;-78
2023/02/24 01:39:34;;;;;;;41.75;22.15;;;;;;;4.41;100.00;100528.13;679748;29;810;-78
2023/02/24 01:40:03;;;;;;;41.55;22.02;;;;;;;4.41;100.00;100524.66;677305;29;1207;-78
2023/02/24 01:40:25;;;;;;;40.47;22.15;;;;;;;4.36;100.00;100523.69;678776;29;1285;-78
2023/02/24 01:40:58;;;;;;;45.92;22.20;;;;;;;4.33;100.00;100540.03;681428;29;4785;-78
2023/02/24 01:41:30;;;;;;;41.33;22.33;;;;;;;4.34;100.00;100536.63;680855;28;1223;-78
2023/02/24 01:41:51;;;;;;;43.95;21.60;;;;;;;4.39;100.00;100519.47;681732;28;993;-78
2023/02/24 01:42:22;;;;;;;41.83;21.58;;;;;;;4.40;100.00;100536.75;680658;29;1408;-78
2023/02/24 01:42:43;;;;;;;42.63;21.52;;;;;;;4.36;100.00;100524.59;681681;29;1134;-78
2023/02/24 01:43:09;;;;;;;40.70;21.10;;;;;;;4.36;100.00;100518.53;682079;29;1927;-78
2023/02/24 01:43:54;;;;;;;45.90;21.40;;;;;;;4.36;100.00;100515.94;680862;28;4298;-78
2023/02/24 01:44:23;;;;;;;41.33;20.75;;;;;;;4.42;100.00;100516.94;678544;29;1232;-78
2023/02/24 01:44:44;;;;;;;44.08;21.40;;;;;;;4.49;100.00;100514.47;687120;28;1220;-78
2023/02/24 01:45:12;;;;;;;43.80;21.63;;;;;;;4.49;100.00;100515.31;685434;28;1111;-78
2023/02/24 01:45:35;;;;;;;43.42;21.65;;;;;;;4.40;100.00;100547.09;689139;28;865;-78
2023/02/24 01:45:57;;;;;;;42.83;21.02;;;;;;;4.34;100.00;100534.03;686241;28;1415;-78
2023/02/24 01:46:23;;;;;;;42.33;21.30;;;;;;;4.34;100.00;100541.78;687352;28;1372;-77
2023/02/24 01:46:46;;;;;;;41.05;20.58;;;;;;;4.29;100.00;100535.66;684176;28;4283;-77
2023/02/24 01:47:06;;;;;;;39.88;20.40;;;;;;;4.33;100.00;100514.16;682248;28;1262;-77
2023/02/24 01:47:30;;;;;;;39.97;20.73;;;;;;;4.33;100.00;100531.41;679786;29;1289;-78
2023/02/24 01:47:52;;;;;;;42.30;20.60;;;;;;;4.31;100.00;100520.19;679402;29;818;-77
2023/02/24 01:48:16;;;;;;;43.38;20.45;;;;;;;4.25;100.00;100515.72;683443;28;1445;-77
2023/02/24 01:48:36;;;;;;;45.80;21.35;;;;;;;4.20;100.00;100517.38;685389;28;1545;-77
2023/02/24 01:49:12;;;;;;;43.35;21.17;;;;;;;4.18;100.00;100544.94;687568;28;1471;-77
2023/02/24 01:49:39;;;;;;;41.50;21.15;;;;;;;4.14;100.00;100544.03;687235;28;4332;-77
2023/02/24 01:50:03;;;;;;;41.75;21.67;;;;;;;4.16;100.00;100520.75;684684;28;889;-77
2023/02/24 01:50:31;;;;;;;41.22;21.35;;;;;;;4.14;100.00;100520.72;687568;28;1260;-77
2023/02/24 01:50:52;;;;;;;44.00;21.33;;;;;;;4.20;100.00;100532.91;684100;28;1327;-77
2023/02/24 01:51:13;;;;;;;40.72;20.98;;;;;;;4.28;100.00;100526.16;684705;28;1328;-77
2023/02/24 01:51:43;;;;;;;41.20;21.08;;;;;;;4.32;100.00;100545.19;690076;28;1422;-78